Oriental Freesia — ZGCD7 — position and weather

sailwx.info

Track history (hours):
 
Tides and Currents Weather Stations Pressure Air Temp Water Temp Dewpoint Dewpoint Depression Visibility Wind Speed Wind Dir Waves Ship Positions

Oriental Freesia

Last reported at 2015-Jul-24 22:33 UTC. Time now 2015-Jul-28 10:27 UTC.
Position N 40°45' E 029°30'.

Length 134 m; draft 8.8 m.

Type: Ship (hazmat cat A). MMSI: 319349000.

Date/timePositionNaut miles runAvg speedWind from/ knotsBaromVisibWave heightAir tempDewpointWater temp
2015-Jul-24 22:33N 40°45' E 029°30'9 9.1
2015-Jul-24 21:33N 40°43' E 029°18'1010.1
2015-Jul-24 20:33N 40°44' E 029°05'236 9.4
2015-Jul-23 19:27N 37°42' E 025°51'1212.9
2015-Jul-23 18:34N 37°31' E 025°52'3611.9
2015-Jul-23 15:32N 36°59' E 026°13'1111.5
2015-Jul-23 14:32N 36°50' E 026°22'1111.3
2015-Jul-23 13:33N 36°42' E 026°31'1211.5
2015-Jul-23 12:31N 36°33' E 026°41'1211.9
2015-Jul-23 11:29N 36°23' E 026°51'6911.4
2015-Jul-23 05:26N 35°45' E 028°02'6413.0
2015-Jul-23 00:30N 35°45' E 029°21'2612.9
2015-Jul-22 22:29N 35°45' E 029°53'4912.6
2015-Jul-22 18:33N 35°45' E 030°54'  
2015-Jul-19 14:33N 35°09' E 034°55'6412.6
2015-Jul-19 09:28N 34°13' E 034°19'1212.8
2015-Jul-19 08:34N 34°02' E 034°12'1312.6
2015-Jul-19 07:33N 33°51' E 034°05'1412.5
2015-Jul-19 06:28N 33°39' E 033°57'1112.1
2015-Jul-19 05:33N 33°30' E 033°51'1512.0
2015-Jul-19 04:16N 33°16' E 033°42'4512.3
2015-Jul-19 00:33N 32°36' E 033°17'1312.1
2015-Jul-18 23:30N 32°25' E 033°09'1112.1
2015-Jul-18 22:34N 32°15' E 033°03'1211.9
2015-Jul-18 21:33N 32°04' E 032°56'3911.6
2015-Jul-18 18:10N 31°36' E 032°24'610.4
2015-Jul-18 17:33N 31°29' E 032°24'1111.0
2015-Jul-18 16:33N 31°18' E 032°22'10 8.6
2015-Jul-18 15:27N 31°09' E 032°19'9 9.1
2015-Jul-18 14:30N 31°01' E 032°19'89 2.9
2015-Jul-17 07:30N 29°33' E 032°35'1212.7
2015-Jul-17 06:33N 29°22' E 032°41'  
Track history (hours):
 
Tides and Currents Weather Stations Pressure Air Temp Water Temp Dewpoint Dewpoint Depression Visibility Wind Speed Wind Dir Waves Ship Positions

Oriental Freesia

Last reported at 2015-Jul-24 22:33 UTC. Time now 2015-Jul-28 10:27 UTC.
Position N 40°45' E 029°30'.

Length 134 m; draft 8.8 m.

Type: Ship (hazmat cat A). MMSI: 319349000.

Date/timePositionNaut miles runAvg speedWind from/ knotsBaromVisibWave heightAir tempDewpointWater temp
2015-Jul-24 22:33N 40°45' E 029°30'9 9.1
2015-Jul-24 21:33N 40°43' E 029°18'1010.1
2015-Jul-24 20:33N 40°44' E 029°05'236 9.4
2015-Jul-23 19:27N 37°42' E 025°51'1212.9
2015-Jul-23 18:34N 37°31' E 025°52'3611.9
2015-Jul-23 15:32N 36°59' E 026°13'1111.5
2015-Jul-23 14:32N 36°50' E 026°22'1111.3
2015-Jul-23 13:33N 36°42' E 026°31'1211.5
2015-Jul-23 12:31N 36°33' E 026°41'1211.9
2015-Jul-23 11:29N 36°23' E 026°51'6911.4
2015-Jul-23 05:26N 35°45' E 028°02'6413.0
2015-Jul-23 00:30N 35°45' E 029°21'2612.9
2015-Jul-22 22:29N 35°45' E 029°53'4912.6
2015-Jul-22 18:33N 35°45' E 030°54'  
2015-Jul-19 14:33N 35°09' E 034°55'6412.6
2015-Jul-19 09:28N 34°13' E 034°19'1212.8
2015-Jul-19 08:34N 34°02' E 034°12'1312.6
2015-Jul-19 07:33N 33°51' E 034°05'1412.5
2015-Jul-19 06:28N 33°39' E 033°57'1112.1
2015-Jul-19 05:33N 33°30' E 033°51'1512.0
2015-Jul-19 04:16N 33°16' E 033°42'4512.3
2015-Jul-19 00:33N 32°36' E 033°17'1312.1
2015-Jul-18 23:30N 32°25' E 033°09'1112.1
2015-Jul-18 22:34N 32°15' E 033°03'1211.9
2015-Jul-18 21:33N 32°04' E 032°56'3911.6
2015-Jul-18 18:10N 31°36' E 032°24'610.4
2015-Jul-18 17:33N 31°29' E 032°24'1111.0
2015-Jul-18 16:33N 31°18' E 032°22'10 8.6
2015-Jul-18 15:27N 31°09' E 032°19'9 9.1
2015-Jul-18 14:30N 31°01' E 032°19'89 2.9
2015-Jul-17 07:30N 29°33' E 032°35'1212.7
2015-Jul-17 06:33N 29°22' E 032°41'  

Dump ship's entire track history